Worley, Idaho
Current Conditions -  °F | °C
As of 12:55 AM on Wednesday 26 Nov 2014 (Local Time) from KCOE Reporting Station
Overcast Overcast  
Wind Chill: 30°   Ceiling: 2800
Heat Index: 34°   Visibility: 3mi
Dew Point: 30°   Wind: 5mph
Humidity: 87%   Direction: 50°NE
Pressure: 30.15"   Gusts: NA
Location:  47.4°N, 116.92°W
Report Text: KCOE 260855Z AUTO 05004KT 3SM FEW009 SCT019 OVC028 01/M01 A3015 RMK AO1 P0001 60002 57003
Loading
Personal Weather Stations






























Interactive Weather Map New forecast layout! Learn more

10-Day Weather Forecast

Advertisements
Track Severe Weather on mobile